^^
Station Historical Data
 
Daily Summary for November 25, 2017 Units:  Metric    English   Both
« Previous Day
Next Day »
Daily Weekly Monthly Yearly Custom
  Current: High: Low: Average:
Temperature: -0.9 °C 0.2 °C -1.2 °C -0.6 °C
Dew Point: -1.5 °C -0.5 °C -1.9 °C -1.3 °C
Humidity: 96 % 96 % 94 % 95 %
Wind Speed: 0 km/h 0 km/h 0 km/h 0 km/h
Wind Gust: 0 km/h 0 km/h - -
Wind:Calm - - North
Pressure: 999.2 hPa 1001.9 hPa 999.2 hPa -
Precipitation: 0 mm      
Historical Graphs
 
 
Tabular Data for November 25, 2017
Time Temperature Dew Point Pressure Wind Wind Speed Wind Gust Humidity Rainfall Rate (Hourly) solar Conditions
00:04 0.2 °C -0.5 °C 1001.9 hPa Calm     95 % 0 mm WeatherDisplay:10.37 W/m2 RA
00:09 0.1 °C -0.6 °C 1001.9 hPa Calm     95 % 0 mm WeatherDisplay:10.37 W/m2 BKN
00:14 0.1 °C -0.7 °C 1001.9 hPa Calm     95 % 0 mm WeatherDisplay:10.37 W/m2 BKN
00:19 0 °C -0.7 °C 1001.9 hPa Calm     95 % 0 mm WeatherDisplay:10.37 W/m2 BKN
00:24 -0.1 °C -0.8 °C 1001.9 hPa Calm     95 % 0 mm WeatherDisplay:10.37 W/m2 BKN
00:29 -0.1 °C -0.8 °C 1001.9 hPa Calm     95 % 0 mm WeatherDisplay:10.37 W/m2 BKN
00:34 -0.2 °C -1.1 °C 1001.9 hPa Calm     94 % 0 mm WeatherDisplay:10.37 W/m2 BKN
00:39 -0.2 °C -0.9 °C 1001.9 hPa Calm     95 % 0 mm WeatherDisplay:10.37 W/m2 BKN
00:44 -0.3 °C -1 °C 1001.9 hPa Calm     95 % 0 mm WeatherDisplay:10.37 W/m2 BKN
00:49 -0.3 °C -1 °C 1001.9 hPa Calm     95 % 0 mm WeatherDisplay:10.37 W/m2 BKN
00:54 -0.3 °C -1 °C 1001.9 hPa Calm     95 % 0 mm WeatherDisplay:10.37 W/m2 BKN
00:59 -0.3 °C -1 °C 1001.9 hPa Calm     95 % 0 mm WeatherDisplay:10.37 W/m2 BKN
01:04 -0.3 °C -1 °C 1001.9 hPa Calm     95 % 0 mm WeatherDisplay:10.37 W/m2 BKN
01:09 -0.3 °C -1 °C 1001.6 hPa Calm     95 % 0 mm WeatherDisplay:10.37 W/m2 BKN
01:14 -0.3 °C -1 °C 1001.9 hPa Calm     95 % 0 mm WeatherDisplay:10.37 W/m2 BKN
01:19 -0.3 °C -1 °C 1001.6 hPa Calm     95 % 0 mm WeatherDisplay:10.37 W/m2 BKN
01:24 -0.2 °C -0.9 °C 1001.6 hPa Calm     95 % 0 mm WeatherDisplay:10.37 W/m2 BKN
01:39 -0.2 °C -0.9 °C 1001.6 hPa Calm     95 % 0 mm WeatherDisplay:10.37 W/m2 BKN
01:49 -0.3 °C -1 °C 1001.2 hPa Calm     95 % 0 mm WeatherDisplay:10.37 W/m2 BKN
01:59 -0.4 °C -1.1 °C 1001.2 hPa Calm     95 % 0 mm WeatherDisplay:10.37 W/m2 BKN
02:04 -0.4 °C -1.2 °C 1001.2 hPa Calm     95 % 0 mm WeatherDisplay:10.37 W/m2 BKN
02:09 -0.5 °C -1.2 °C 1000.9 hPa Calm     95 % 0 mm WeatherDisplay:10.37 W/m2 BKN
02:14 -0.6 °C -1.3 °C 1000.9 hPa Calm     95 % 0 mm WeatherDisplay:10.37 W/m2 SCT
02:19 -0.6 °C -1.3 °C 1000.9 hPa Calm     95 % 0 mm WeatherDisplay:10.37 W/m2 SCT
02:24 -0.6 °C -1.3 °C 1000.9 hPa Calm     95 % 0 mm WeatherDisplay:10.37 W/m2 SCT
02:29 -0.7 °C -1.4 °C 1000.9 hPa Calm     95 % 0 mm WeatherDisplay:10.37 W/m2 SCT
02:34 -0.7 °C -1.4 °C 1000.9 hPa Calm     95 % 0 mm WeatherDisplay:10.37 W/m2 SCT
02:39 -0.8 °C -1.4 °C 1000.9 hPa Calm     95 % 0 mm WeatherDisplay:10.37 W/m2 SCT
02:49 -0.8 °C -1.6 °C 1000.6 hPa Calm     95 % 0 mm WeatherDisplay:10.37 W/m2 SCT
02:59 -0.8 °C -1.6 °C 1000.6 hPa Calm     95 % 0 mm WeatherDisplay:10.37 W/m2 SCT
03:04 -0.9 °C -1.6 °C 1000.6 hPa Calm     95 % 0 mm WeatherDisplay:10.37 W/m2 SCT
03:09 -0.9 °C -1.6 °C 1000.6 hPa Calm     95 % 0 mm WeatherDisplay:10.37 W/m2 SCT
03:14 -1 °C -1.7 °C 1000.2 hPa Calm     95 % 0 mm WeatherDisplay:10.37 W/m2 SCT
03:19 -1.1 °C -1.8 °C 1000.2 hPa Calm     95 % 0 mm WeatherDisplay:10.37 W/m2 SCT
03:24 -1.1 °C -1.8 °C 1000.2 hPa Calm     95 % 0 mm WeatherDisplay:10.37 W/m2 SCT
03:29 -1.1 °C -1.8 °C 999.9 hPa Calm     95 % 0 mm WeatherDisplay:10.37 W/m2 SCT
03:39 -1.1 °C -1.8 °C 999.9 hPa Calm     95 % 0 mm WeatherDisplay:10.37 W/m2 SCT
03:49 -1.2 °C -1.8 °C 999.9 hPa Calm     95 % 0 mm WeatherDisplay:10.37 W/m2 SCT
03:59 -1.2 °C -1.9 °C 999.9 hPa Calm     95 % 0 mm WeatherDisplay:10.37 W/m2 SCT
04:04 -1.1 °C -1.8 °C 999.9 hPa Calm     95 % 0 mm WeatherDisplay:10.37 W/m2 SCT
04:09 -1.1 °C -1.8 °C 999.9 hPa Calm     95 % 0 mm WeatherDisplay:10.37 W/m2 SCT
04:14 -1.1 °C -1.8 °C 999.9 hPa Calm     95 % 0 mm WeatherDisplay:10.37 W/m2 FEW
04:19 -1.1 °C -1.8 °C 999.5 hPa Calm     95 % 0 mm WeatherDisplay:10.37 W/m2 FEW
04:24 -1.1 °C -1.8 °C 999.5 hPa Calm     95 % 0 mm WeatherDisplay:10.37 W/m2 FEW
04:29 -1 °C -1.7 °C 999.5 hPa Calm     95 % 0 mm WeatherDisplay:10.37 W/m2 FEW
04:34 -1 °C -1.7 °C 999.5 hPa Calm     95 % 0 mm WeatherDisplay:10.37 W/m2 FEW
04:39 -0.9 °C -1.5 °C 999.2 hPa Calm     96 % 0 mm WeatherDisplay:10.37 W/m2 FEW
Juneau County Weather
Compliments of Weather Underground - 1.5 mb